Main page
METAR-TAF:

METAR-TAF

Airports :

Ohrid "St. Paul the Apostle" Airport

Ohrid, Macedonia

latitude: 41-07N, longitude: 020-48E, elevation: 760 m

Current weather observation

The report was made 22 minutes ago, at 10:00 UTC
Wind 6 kt from the Southeast
Temperature 24°C
Humidity 57%
Pressure 1013 hPa
Visibility 10 km or more
Scattered clouds at a height of 5000 ft

METAR: LWOH 181000Z 14006KT 9999 SCT050 24/15 Q1013

Time: 12:22 (10:22 UTC)

Forecast

The report was made 1 hour and 52 minutes ago, at 08:30 UTC
Forecast valid from 18 at 09 UTC to 19 at 09 UTC
Wind 6 kt from the South/Southeast
Visibility 10 km or more
Few clouds at a height of 4000 ft
Probability 30% :
Temporary
from 18 at 14 UTC to 18 at 20 UTC
Wind 15 kt from variable directions
Few clouds at a height of 3300 ft, Cumulonimbus.
Broken clouds at a height of 4000 ft
thunderstorm, rain

TAF: LWOH 180830Z 1809/1909 16006KT 9999 FEW040 PROB30 TEMPO 1814/1820 VRB15KT TSRA FEW033CB BKN040

Weather observations and forecasts of more than 4000 airports (METAR and TAF reports).

The available stations are represented by yellow and red dots on the map.

Hover mouse over dot to see the name of the station.

Then click to see weather observations and forecasts.

To change the map : click on the green buttons with a black cross to zoom in, on the green button with a dash to zoom out, or on the green arrows for adjacent maps.


METAR-TAF: